Monday, November 19, 2018, 8:05 AM GMT
Back to Local

CWSD, Summerside Automatic Weather Reporting System

Location: , , Canada Lat: 46.433
Local Time: 8:05 AM GMT ( 8:05 GMT) Lon: -63.85
Time Zone: GMT Elev: 78 ft

Show me the last for .
Show Coded

Time T Td Feel RH Dir Speed Gust Alt SLP Vis Weather Sky Remarks
2018-11-19 07:00 10 7 - 89 220° 2 - - 30.26 0 None
2018-11-19 06:00 10 7 4 88 240° 3 - - 30.27 0 None
2018-11-19 05:00 14 10 8 83 240° 3 - - 30.28 0 None
2018-11-19 04:00 18 13 12 82 250° 3 - - 30.29 0 None
2018-11-19 03:00 20 13 14 72 260° 5 - - 30.29 0 None
2018-11-19 02:00 21 14 13 73 260° 7 - - 30.30 0 None
2018-11-19 01:00 25 17 17 71 260° 7 - - 30.29 0 None
2018-11-19 00:00 25 18 19 73 280° 5 - - 30.29 0 None
2018-11-18 23:00 25 18 20 72 270° 5 - - 30.29 0 None
2018-11-18 22:00 25 18 20 72 290° 5 - - 30.29 0 None
2018-11-18 21:00 26 17 18 69 270° 7 - - 30.28 0 None
2018-11-18 20:00 26 17 20 69 270° 5 - - 30.27 0 None
2018-11-18 19:00 26 16 16 64 290° 10 - - 30.27 0 None
2018-11-18 18:00 27 14 18 57 280° 9 - - 30.26 0 None
2018-11-18 17:00 27 16 16 62 280° 12 - - 30.26 0 None
2018-11-18 15:00 26 16 14 65 300° 14 - - 30.25 0 None
2018-11-18 13:00 24 16 13 70 310° 13 - - 30.21 0 None
2018-11-18 12:00 22 16 13 74 310° 8 - - 30.20 0 None
2018-11-18 10:00 24 17 13 74 300° 12 - - 30.11 0 Peak wind: 20 mph (18 kts) from 300° at 25 min
2018-11-18 09:00 26 20 15 77 290° 12 - - 30.09 0 None

Support USWX by starting your Amazon purchase here.